createdAt,value
2022-07-25T00:04:03.162Z,93860.17
2022-07-25T00:09:13.699Z,93855.36
2022-07-25T00:14:25.528Z,93855.34
2022-07-25T00:19:39.119Z,93852.53
2022-07-25T00:24:53.192Z,93847.25
2022-07-25T00:30:02.990Z,93842.25
2022-07-25T00:35:17.848Z,93836.67
2022-07-25T00:40:28.229Z,93832.96
2022-07-25T00:45:40.227Z,93829.00
2022-07-25T00:50:53.059Z,93819.67
2022-07-25T00:56:02.917Z,93816.47
2022-07-25T01:01:11.836Z,93813.95
2022-07-25T01:06:22.159Z,93814.84
2022-07-25T01:11:33.018Z,93812.56
2022-07-25T01:16:47.509Z,93815.22
2022-07-25T01:22:01.126Z,93805.75
2022-07-25T01:27:17.247Z,93800.19
2022-07-25T01:32:26.887Z,93797.64
2022-07-25T01:37:34.167Z,93798.30
2022-07-25T01:42:42.784Z,93789.47
2022-07-25T01:47:50.684Z,93788.64
2022-07-25T01:52:58.875Z,93780.02
2022-07-25T01:58:07.411Z,93774.73
2022-07-25T02:03:31.167Z,93773.23
2022-07-25T02:08:39.667Z,93762.88
2022-07-25T02:13:47.824Z,93761.20
2022-07-25T02:19:00.015Z,93760.81
2022-07-25T02:24:08.972Z,93760.42
2022-07-25T02:29:17.570Z,93750.63
2022-07-25T02:34:26.924Z,93753.88
2022-07-25T02:39:34.089Z,93741.92
2022-07-25T02:44:41.476Z,93750.14
2022-07-25T02:49:49.471Z,93750.50
2022-07-25T02:55:02.974Z,93746.47
2022-07-25T03:00:45.703Z,93745.13
2022-07-25T03:05:53.398Z,93743.97
2022-07-25T03:11:01.227Z,93738.67
2022-07-25T03:16:12.618Z,93741.83
2022-07-25T03:21:20.029Z,93737.27
2022-07-25T03:26:27.424Z,93733.38
2022-07-25T03:31:40.722Z,93729.19
2022-07-25T03:36:52.958Z,93728.96
2022-07-25T03:42:04.091Z,93739.61
2022-07-25T03:47:20.512Z,93739.39
2022-07-25T03:52:21.429Z,93734.19
2022-07-25T03:57:29.649Z,93735.28
2022-07-25T04:02:38.606Z,93728.34
2022-07-25T04:07:46.154Z,93734.39
2022-07-25T04:12:55.249Z,93735.97
2022-07-25T04:18:07.255Z,93732.73
2022-07-25T04:23:19.107Z,93728.03
2022-07-25T04:28:31.788Z,93733.05
2022-07-25T04:33:49.398Z,93728.69
2022-07-25T04:38:59.918Z,93727.99
2022-07-25T04:44:11.639Z,93719.34
2022-07-25T04:49:21.867Z,93713.17
2022-07-25T04:54:35.308Z,93720.06
2022-07-25T04:59:49.578Z,93715.87
2022-07-25T05:04:58.456Z,93712.13
2022-07-25T05:10:15.030Z,93713.07
2022-07-25T05:15:25.947Z,93713.17
2022-07-25T05:20:36.068Z,93711.70
2022-07-25T05:25:44.975Z,93708.11
2022-07-25T05:30:55.939Z,93706.72
2022-07-25T05:36:06.861Z,93707.20
2022-07-25T05:41:19.457Z,93708.28
2022-07-25T05:46:29.416Z,93709.64
2022-07-25T05:51:42.468Z,93698.92
2022-07-25T05:56:54.326Z,93706.11
2022-07-25T06:02:07.391Z,93701.55
2022-07-25T06:07:20.558Z,93697.17
2022-07-25T06:12:33.811Z,93693.36
2022-07-25T06:17:46.037Z,93691.49
2022-07-25T06:23:00.967Z,93692.09
2022-07-25T06:28:14.177Z,93686.95
2022-07-25T06:33:29.650Z,93684.00
2022-07-25T06:38:43.841Z,93677.77
2022-07-25T06:43:56.858Z,93682.52
2022-07-25T06:49:08.082Z,93679.34
2022-07-25T06:54:20.179Z,93682.50
2022-07-25T06:59:32.807Z,93673.73
2022-07-25T07:04:43.813Z,93675.31
2022-07-25T07:09:58.267Z,93669.66
2022-07-25T07:15:10.096Z,93675.47
2022-07-25T07:20:19.787Z,93676.04
2022-07-25T07:25:32.628Z,93676.28
2022-07-25T07:35:58.068Z,93670.98
2022-07-25T07:41:07.710Z,93673.98
2022-07-25T07:46:21.105Z,93670.18
2022-07-25T07:51:32.823Z,93672.20
2022-07-25T07:56:48.360Z,93666.94
2022-07-25T08:01:59.516Z,93667.61
2022-07-25T08:07:09.718Z,93662.53
2022-07-25T08:12:19.748Z,93656.19
2022-07-25T08:17:33.467Z,93652.42
2022-07-25T08:22:56.743Z,93656.70
2022-07-25T08:28:05.568Z,93654.80
2022-07-25T08:33:22.478Z,93647.59
2022-07-25T08:38:34.309Z,93645.72
2022-07-25T08:43:48.576Z,93642.41
2022-07-25T08:49:01.779Z,93641.89
2022-07-25T08:54:14.403Z,93634.67
2022-07-25T08:59:28.867Z,93627.58
2022-07-25T09:04:41.098Z,93621.79
2022-07-25T09:09:51.528Z,93629.37
2022-07-25T09:15:02.319Z,93617.05
2022-07-25T09:20:18.596Z,93617.12
2022-07-25T09:25:33.307Z,93601.63
2022-07-25T09:30:48.671Z,93605.60
2022-07-25T09:36:01.839Z,93600.93
2022-07-25T09:41:15.097Z,93599.36
2022-07-25T09:46:36.158Z,93587.47
2022-07-25T09:51:50.687Z,93585.64
2022-07-25T09:57:01.507Z,93582.70
2022-07-25T10:02:46.551Z,93580.02
2022-07-25T10:08:00.988Z,93573.97
2022-07-25T10:13:25.686Z,93570.36
2022-07-25T10:18:41.861Z,93562.43
2022-07-25T10:24:07.178Z,93560.64
2022-07-25T10:29:21.352Z,93561.10
2022-07-25T10:34:37.806Z,93556.91
2022-07-25T10:39:51.829Z,93551.70
2022-07-25T10:45:04.867Z,93540.95
2022-07-25T10:50:29.824Z,93537.63
2022-07-25T10:55:40.385Z,93531.70
2022-07-25T11:00:56.645Z,93533.25
2022-07-25T11:06:06.967Z,93525.17
2022-07-25T11:11:20.198Z,93516.52
2022-07-25T11:16:32.076Z,93522.69
2022-07-25T11:21:50.579Z,93511.70
2022-07-25T11:27:02.797Z,93509.22
2022-07-25T11:32:14.670Z,93502.40
2022-07-25T11:37:29.291Z,93497.06
2022-07-25T11:42:55.179Z,93484.33
2022-07-25T11:48:16.767Z,93484.18
2022-07-25T11:53:30.007Z,93477.21
2022-07-25T11:58:39.776Z,93473.48
2022-07-25T12:03:52.568Z,93469.09
2022-07-25T12:09:06.782Z,93464.30
2022-07-25T12:14:19.851Z,93454.72
2022-07-25T12:19:30.179Z,93457.30
2022-07-25T12:24:43.438Z,93451.72
2022-07-25T12:29:56.668Z,93454.27
2022-07-25T12:35:08.876Z,93433.70
2022-07-25T12:40:22.027Z,93439.64
2022-07-25T12:45:36.353Z,93428.77
2022-07-25T12:50:52.517Z,93428.43
2022-07-25T12:56:02.421Z,93420.33
2022-07-25T13:01:15.036Z,93415.27
2022-07-25T13:06:27.217Z,93410.26
2022-07-25T13:11:37.598Z,93398.81
2022-07-25T13:16:51.563Z,93399.86
2022-07-25T13:22:00.909Z,93396.62
2022-07-25T13:27:11.974Z,93391.02
2022-07-25T13:32:23.932Z,93377.51
2022-07-25T13:37:39.188Z,93378.47
2022-07-25T13:42:54.535Z,93375.49
2022-07-25T13:48:28.423Z,93372.59
2022-07-25T13:53:17.957Z,93364.44
2022-07-25T13:58:28.167Z,93362.56
2022-07-25T14:03:41.946Z,93357.37
2022-07-25T14:08:51.628Z,93351.81
2022-07-25T14:14:01.508Z,93351.09
2022-07-25T14:19:13.130Z,93341.38
2022-07-25T14:24:24.868Z,93332.33
2022-07-25T14:29:34.627Z,93331.97
2022-07-25T14:34:47.827Z,93325.31
2022-07-25T14:40:00.398Z,93324.06
2022-07-25T14:45:09.170Z,93323.13
2022-07-25T14:50:19.818Z,93322.36
2022-07-25T14:55:31.900Z,93322.17
2022-07-25T15:00:43.511Z,93307.19
2022-07-25T15:05:52.378Z,93309.30
2022-07-25T15:11:03.708Z,93309.67
2022-07-25T15:16:11.191Z,93313.69
2022-07-25T15:21:19.030Z,93310.55
2022-07-25T15:26:30.306Z,93300.25
2022-07-25T15:31:39.798Z,93293.06
2022-07-25T15:36:46.988Z,93297.55
2022-07-25T15:41:54.682Z,93290.55
2022-07-25T15:47:05.108Z,93287.22
2022-07-25T15:52:16.697Z,93287.41
2022-07-25T15:57:26.554Z,93279.06
2022-07-25T16:02:33.678Z,93269.47
2022-07-25T16:07:40.677Z,93271.58
2022-07-25T16:12:48.088Z,93262.08
2022-07-25T16:18:02.842Z,93260.24
2022-07-25T16:23:12.280Z,93255.22
2022-07-25T16:28:23.300Z,93258.55
2022-07-25T16:33:38.602Z,93265.77
2022-07-25T16:38:50.800Z,93255.67
2022-07-25T16:44:02.277Z,93253.75
2022-07-25T16:49:21.400Z,93242.81
2022-07-25T16:54:30.097Z,93247.13
2022-07-25T16:59:39.779Z,93243.22
2022-07-25T17:04:52.085Z,93236.95
2022-07-25T17:10:03.260Z,93232.13
2022-07-25T17:15:17.645Z,93236.77
2022-07-25T17:20:34.601Z,93239.05
2022-07-25T17:25:50.656Z,93237.39
2022-07-25T17:31:05.177Z,93239.52
2022-07-25T17:36:21.837Z,93228.19
2022-07-25T17:41:31.597Z,93235.50
2022-07-25T18:02:52.264Z,93226.52
2022-07-25T18:08:02.079Z,93228.56
2022-07-25T18:13:13.803Z,93216.98
2022-07-25T18:18:22.871Z,93220.22
2022-07-25T18:23:31.180Z,93219.20
2022-07-25T18:28:41.368Z,93235.13
2022-07-25T18:33:50.507Z,93227.86
2022-07-25T18:38:59.268Z,93216.39
2022-07-25T18:44:13.629Z,93227.39
2022-07-25T18:49:25.262Z,93230.64
2022-07-25T18:54:36.448Z,93222.17
2022-07-25T18:59:45.469Z,93220.02
2022-07-25T19:04:56.305Z,93221.70
2022-07-25T19:10:07.318Z,93229.76
2022-07-25T19:15:18.411Z,93232.87
2022-07-25T19:20:26.228Z,93233.63
2022-07-25T19:25:33.230Z,93228.26
2022-07-25T19:30:47.624Z,93225.02
2022-07-25T19:35:59.068Z,93230.86
2022-07-25T19:41:07.970Z,93244.75
2022-07-25T19:46:19.155Z,93242.92
2022-07-25T19:51:32.318Z,93264.33
2022-07-25T19:56:44.539Z,93276.11
2022-07-25T20:01:57.517Z,93271.42
2022-07-25T20:07:04.728Z,93261.73
2022-07-25T20:12:21.400Z,93250.80
2022-07-25T20:17:34.027Z,93258.19
2022-07-25T20:22:48.559Z,93239.72
2022-07-25T20:27:59.907Z,93238.82
2022-07-25T20:33:14.172Z,93238.70
2022-07-25T20:38:27.268Z,93244.50
2022-07-25T20:43:42.749Z,93252.84
2022-07-25T20:48:52.851Z,93251.78
2022-07-25T20:54:03.868Z,93256.84
2022-07-25T20:59:16.729Z,93230.44
2022-07-25T21:04:27.248Z,93210.39
2022-07-25T21:09:35.521Z,93212.81
2022-07-25T21:14:47.230Z,93217.88
2022-07-25T21:19:58.208Z,93228.33
2022-07-25T21:25:11.307Z,93239.02
2022-07-25T21:30:23.397Z,93225.53
2022-07-25T21:35:32.228Z,93226.05
2022-07-25T21:40:46.034Z,93243.02
2022-07-25T21:45:58.872Z,93244.84
2022-07-25T21:51:15.184Z,93245.80
2022-07-25T21:56:21.885Z,93251.75
2022-07-25T22:01:31.168Z,93237.99
2022-07-25T22:06:42.239Z,93241.66
2022-07-25T22:11:55.612Z,93259.09
2022-07-25T22:17:02.458Z,93249.78
2022-07-25T22:28:35.899Z,93228.71
2022-07-25T22:33:48.687Z,93243.34
2022-07-25T22:39:00.828Z,93240.06
2022-07-25T22:44:13.028Z,93231.00
2022-07-25T22:49:27.297Z,93235.51
2022-07-25T22:54:41.589Z,93238.79
2022-07-25T22:59:58.808Z,93235.34
2022-07-25T23:05:10.703Z,93235.56
2022-07-25T23:10:20.417Z,93253.66
2022-07-25T23:15:50.067Z,93271.39
2022-07-25T23:20:45.543Z,93260.81
2022-07-25T23:25:53.372Z,93272.40
2022-07-25T23:31:01.888Z,93259.77
2022-07-25T23:36:12.167Z,93285.16
2022-07-25T23:41:28.687Z,93277.14
2022-07-25T23:46:43.951Z,93254.43
2022-07-25T23:51:53.764Z,93237.61
2022-07-25T23:57:02.378Z,93234.72
